Montclair, Colorado
Current Conditions -  °F | °C
As of 11:17 PM on Sunday 21 Dec 2014 (Local Time) from KBKF Reporting Station
Overcast Overcast  
Wind Chill: 32°   Ceiling: 1600
Heat Index: 32°   Visibility: 10mi
Dew Point: 32°   Wind: 1mph
Humidity: 100%   Direction: 30°NNE
Pressure: 29.7"   Gusts: NA
Location:  39.732°N, 104.924°W
Report Text: KBKF 220617Z 03001KT 10SM SCT005 BKN016 BKN040 OVC050 00/00 A2970 RMK AO2A
Loading
Personal Weather Stations






























Interactive Weather Map New forecast layout! Learn more

10-Day Weather Forecast

Advertisements
Track Severe Weather on mobile